createdAt,value
2018-01-17T00:00:12.000Z,15.9
2018-01-17T00:10:12.000Z,15.8
2018-01-17T00:20:12.000Z,15.8
2018-01-17T00:30:12.000Z,15.8
2018-01-17T00:40:12.000Z,15.6
2018-01-17T00:50:12.000Z,15.8
2018-01-17T01:00:12.000Z,15.6
2018-01-17T01:10:12.000Z,15.3
2018-01-17T01:20:12.000Z,15.5
2018-01-17T01:30:12.000Z,15.4
2018-01-17T01:40:12.000Z,15.4
2018-01-17T01:50:12.000Z,15.4
2018-01-17T02:00:12.000Z,15.5
2018-01-17T02:10:12.000Z,15.3
2018-01-17T02:20:12.000Z,15.1
2018-01-17T02:30:13.000Z,15
2018-01-17T02:40:12.000Z,14.8
2018-01-17T02:50:12.000Z,14.8
2018-01-17T03:00:12.000Z,14.7
2018-01-17T03:10:12.000Z,14.8
2018-01-17T03:20:12.000Z,14.7
2018-01-17T03:30:12.000Z,14.6
2018-01-17T03:40:12.000Z,14.6
2018-01-17T03:50:12.000Z,14.6
2018-01-17T04:00:12.000Z,14.7
2018-01-17T04:10:12.000Z,14.5
2018-01-17T04:20:12.000Z,14.6
2018-01-17T04:30:12.000Z,14.5
2018-01-17T04:40:12.000Z,14.6
2018-01-17T04:50:12.000Z,14.5
2018-01-17T05:00:12.000Z,14.5
2018-01-17T05:10:12.000Z,14.4
2018-01-17T05:20:12.000Z,14.3
2018-01-17T05:30:14.000Z,14.3
2018-01-17T05:40:12.000Z,14.3
2018-01-17T05:50:12.000Z,14.1
2018-01-17T06:00:14.000Z,14.2
2018-01-17T06:10:12.000Z,14.3
2018-01-17T06:20:12.000Z,14.3
2018-01-17T06:30:12.000Z,14.3
2018-01-17T06:40:12.000Z,14.5
2018-01-17T06:50:12.000Z,14.3
2018-01-17T07:00:13.000Z,15.7
2018-01-17T07:10:13.000Z,16.4
2018-01-17T07:20:13.000Z,17
2018-01-17T07:30:13.000Z,17.4
2018-01-17T07:40:13.000Z,17.4
2018-01-17T07:50:13.000Z,17.8
2018-01-17T08:00:13.000Z,17.8
2018-01-17T08:10:13.000Z,18
2018-01-17T08:20:13.000Z,18.1
2018-01-17T08:30:13.000Z,18
2018-01-17T08:40:13.000Z,18.1
2018-01-17T08:50:13.000Z,18.3
2018-01-17T09:00:13.000Z,18.4
2018-01-17T09:10:13.000Z,18.5
2018-01-17T09:20:13.000Z,18.5
2018-01-17T09:30:13.000Z,18.5
2018-01-17T09:40:13.000Z,18.6
2018-01-17T09:50:13.000Z,18.7
2018-01-17T10:00:13.000Z,18.6
2018-01-17T10:10:15.000Z,18.8
2018-01-17T10:20:13.000Z,18.8
2018-01-17T10:30:13.000Z,18.8
2018-01-17T10:40:13.000Z,18.8
2018-01-17T10:50:13.000Z,18.8
2018-01-17T11:00:13.000Z,18.8
2018-01-17T11:10:13.000Z,18.9
2018-01-17T11:20:13.000Z,18.8
2018-01-17T11:30:13.000Z,19
2018-01-17T11:40:13.000Z,18.9
2018-01-17T11:50:13.000Z,18.9
2018-01-17T12:00:13.000Z,18.8
2018-01-17T12:10:13.000Z,19
2018-01-17T12:20:13.000Z,19
2018-01-17T12:30:13.000Z,19
2018-01-17T12:40:13.000Z,19
2018-01-17T12:50:13.000Z,18.8
2018-01-17T13:00:13.000Z,19.2
2018-01-17T13:10:13.000Z,18.9
2018-01-17T13:20:13.000Z,19.1
2018-01-17T13:30:13.000Z,19.1
2018-01-17T13:40:13.000Z,19.3
2018-01-17T13:50:13.000Z,19.8
2018-01-17T14:00:14.000Z,19.9
2018-01-17T14:10:14.000Z,20
2018-01-17T14:20:14.000Z,20
2018-01-17T14:30:14.000Z,19.8
2018-01-17T14:40:14.000Z,19.4
2018-01-17T14:50:14.000Z,19.3
2018-01-17T15:00:14.000Z,19.7
2018-01-17T15:10:14.000Z,20.2
2018-01-17T15:20:16.000Z,20.3
2018-01-17T15:30:14.000Z,20
2018-01-17T15:40:14.000Z,19.7
2018-01-17T15:50:14.000Z,19.6
2018-01-17T16:10:14.000Z,19.5
2018-01-17T16:20:14.000Z,19.5
2018-01-17T16:30:14.000Z,19.4
2018-01-17T16:40:14.000Z,19.4
2018-01-17T16:50:14.000Z,19.6
2018-01-17T17:00:14.000Z,19.3
2018-01-17T17:10:14.000Z,19.4
2018-01-17T17:20:14.000Z,19.5
2018-01-17T17:30:14.000Z,19.4
2018-01-17T17:40:14.000Z,19.4
2018-01-17T17:50:14.000Z,19.4
2018-01-17T18:00:14.000Z,19.4
2018-01-17T18:10:14.000Z,19.5
2018-01-17T18:20:14.000Z,19.5
2018-01-17T18:30:14.000Z,19.7
2018-01-17T18:40:14.000Z,19.4
2018-01-17T18:50:14.000Z,19.4
2018-01-17T19:00:14.000Z,19.3
2018-01-17T19:10:14.000Z,19.5
2018-01-17T19:20:14.000Z,19.5
2018-01-17T19:30:14.000Z,19.5
2018-01-17T19:40:14.000Z,19.5
2018-01-17T19:50:14.000Z,19.5
2018-01-17T20:00:14.000Z,19.5
2018-01-17T20:10:15.000Z,19.5
2018-01-17T20:20:14.000Z,19.5
2018-01-17T20:30:14.000Z,19.5
2018-01-17T20:40:14.000Z,19.3
2018-01-17T20:50:15.000Z,19.6
2018-01-17T21:00:15.000Z,19.6
2018-01-17T21:10:15.000Z,19.5
2018-01-17T21:20:15.000Z,19.5
2018-01-17T21:30:15.000Z,19.5
2018-01-17T21:40:15.000Z,19.5
2018-01-17T21:50:15.000Z,19.6
2018-01-17T22:00:15.000Z,19.5
2018-01-17T22:10:15.000Z,19.6
2018-01-17T22:20:15.000Z,19.5
2018-01-17T22:30:15.000Z,19.5
2018-01-17T22:40:15.000Z,19.5
2018-01-17T22:50:15.000Z,19.6
2018-01-17T23:00:15.000Z,18.6
2018-01-17T23:10:15.000Z,17.4
2018-01-17T23:20:15.000Z,16.8
2018-01-17T23:30:15.000Z,16.6
2018-01-17T23:40:19.000Z,16.2
2018-01-17T23:50:15.000Z,16
